createdAt,value
2023-02-27T00:01:10.445Z,98634.97
2023-02-27T00:03:38.485Z,98630.72
2023-02-27T00:06:06.987Z,98638.69
2023-02-27T00:08:35.120Z,98637.88
2023-02-27T00:11:03.255Z,98637.22
2023-02-27T00:13:32.656Z,98635.34
2023-02-27T00:16:00.797Z,98628.16
2023-02-27T00:18:28.913Z,98646.00
2023-02-27T00:20:56.920Z,98636.13
2023-02-27T00:23:25.000Z,98634.09
2023-02-27T00:25:54.863Z,98639.69
2023-02-27T00:28:23.102Z,98652.50
2023-02-27T00:30:52.518Z,98637.97
2023-02-27T00:33:20.701Z,98640.78
2023-02-27T00:35:56.697Z,98628.91
2023-02-27T00:38:24.799Z,98619.81
2023-02-27T00:40:53.026Z,98626.41
2023-02-27T00:43:21.314Z,98632.31
2023-02-27T00:45:50.466Z,98637.22
2023-02-27T00:48:20.131Z,98643.09
2023-02-27T00:50:48.424Z,98641.94
2023-02-27T00:53:16.500Z,98627.19
2023-02-27T00:55:44.610Z,98640.06
2023-02-27T00:58:12.753Z,98636.66
2023-02-27T01:00:40.906Z,98646.00
2023-02-27T01:03:08.999Z,98644.50
2023-02-27T01:05:38.446Z,98638.81
2023-02-27T01:08:06.525Z,98643.38
2023-02-27T01:10:34.600Z,98648.84
2023-02-27T01:13:02.754Z,98634.41
2023-02-27T01:15:30.789Z,98629.34
2023-02-27T01:17:58.843Z,98647.50
2023-02-27T01:20:26.948Z,98641.31
2023-02-27T01:22:56.402Z,98652.97
2023-02-27T01:25:24.560Z,98650.13
2023-02-27T01:27:52.794Z,98642.63
2023-02-27T01:30:20.971Z,98651.94
2023-02-27T01:32:49.105Z,98658.88
2023-02-27T01:35:17.975Z,98655.59
2023-02-27T01:37:46.035Z,98672.88
2023-02-27T01:40:16.161Z,98664.56
2023-02-27T01:42:44.448Z,98658.16
2023-02-27T01:45:34.656Z,98662.72
2023-02-27T01:48:14.511Z,98677.81
2023-02-27T01:50:49.559Z,98662.59
2023-02-27T01:53:20.165Z,98658.66
2023-02-27T01:55:51.089Z,98667.63
2023-02-27T01:58:20.097Z,98662.19
2023-02-27T02:00:49.385Z,98661.13
2023-02-27T02:03:26.869Z,98676.34
2023-02-27T02:05:58.070Z,98677.22
2023-02-27T02:08:29.270Z,98670.25
2023-02-27T02:10:59.732Z,98675.88
2023-02-27T02:13:28.250Z,98681.03
2023-02-27T02:16:11.560Z,98680.28
2023-02-27T02:18:52.372Z,98682.78
2023-02-27T02:22:07.440Z,98674.94
2023-02-27T02:25:08.690Z,98674.94
2023-02-27T02:27:49.880Z,98670.47
2023-02-27T02:31:01.128Z,98666.47
2023-02-27T02:34:02.748Z,98673.75
2023-02-27T02:37:25.344Z,98685.28
2023-02-27T02:40:14.338Z,98671.38
2023-02-27T02:42:53.431Z,98690.38
2023-02-27T02:45:29.376Z,98683.75
2023-02-27T02:48:04.973Z,98683.69
2023-02-27T02:50:40.745Z,98690.78
2023-02-27T02:53:14.529Z,98692.44
2023-02-27T02:55:49.742Z,98699.16
2023-02-27T02:58:26.371Z,98701.94
2023-02-27T03:01:01.216Z,98697.94
2023-02-27T03:03:33.601Z,98706.34
2023-02-27T03:06:06.532Z,98711.91
2023-02-27T03:08:39.992Z,98706.16
2023-02-27T03:11:09.738Z,98707.19
2023-02-27T03:13:42.053Z,98697.91
2023-02-27T03:16:15.599Z,98714.00
2023-02-27T03:18:50.441Z,98709.50
2023-02-27T03:21:26.286Z,98731.91
2023-02-27T03:23:59.151Z,98719.97
2023-02-27T03:26:35.106Z,98734.69
2023-02-27T03:29:07.971Z,98724.25
2023-02-27T03:31:43.711Z,98722.75
2023-02-27T03:34:22.171Z,98716.16
2023-02-27T03:36:59.544Z,98747.84
2023-02-27T03:39:37.218Z,98731.97
2023-02-27T03:42:16.254Z,98731.91
2023-02-27T03:45:25.908Z,98738.19
2023-02-27T03:47:54.569Z,98751.84
2023-02-27T03:50:23.032Z,98741.84
2023-02-27T03:52:51.647Z,98736.75
2023-02-27T03:55:24.201Z,98756.56
2023-02-27T03:57:54.253Z,98749.72
2023-02-27T04:00:25.429Z,98757.63
2023-02-27T04:02:55.495Z,98753.13
2023-02-27T04:05:26.566Z,98763.25
2023-02-27T04:08:28.931Z,98769.28
2023-02-27T04:11:28.618Z,98775.88
2023-02-27T04:14:12.886Z,98769.16
2023-02-27T04:17:08.670Z,98768.09
2023-02-27T04:19:52.487Z,98776.44
2023-02-27T04:22:34.013Z,98781.63
2023-02-27T04:25:12.657Z,98785.66
2023-02-27T04:27:47.402Z,98793.09
2023-02-27T04:30:27.505Z,98796.78
2023-02-27T04:33:01.590Z,98810.25
2023-02-27T04:35:36.249Z,98798.22
2023-02-27T04:38:10.752Z,98802.47
2023-02-27T04:40:44.680Z,98789.63
2023-02-27T04:43:16.050Z,98796.28
2023-02-27T04:45:47.759Z,98797.75
2023-02-27T04:48:20.780Z,98800.50
2023-02-27T04:50:56.221Z,98807.50
2023-02-27T04:53:27.740Z,98797.78
2023-02-27T04:56:02.315Z,98797.34
2023-02-27T04:58:34.916Z,98804.78
2023-02-27T05:01:09.794Z,98802.09
2023-02-27T05:03:41.595Z,98799.16
2023-02-27T05:06:11.709Z,98803.38
2023-02-27T05:08:45.563Z,98806.81
2023-02-27T05:11:22.817Z,98804.75
2023-02-27T05:13:56.265Z,98806.69
2023-02-27T05:16:33.197Z,98794.69
2023-02-27T05:19:03.150Z,98804.06
2023-02-27T05:21:38.494Z,98810.38
2023-02-27T05:24:15.450Z,98817.09
2023-02-27T05:26:57.975Z,98820.94
2023-02-27T05:29:34.440Z,98822.47
2023-02-27T05:32:15.605Z,98827.00
2023-02-27T05:34:50.539Z,98832.97
2023-02-27T05:37:24.409Z,98834.28
2023-02-27T05:39:54.020Z,98836.44
2023-02-27T05:42:27.918Z,98843.13
2023-02-27T05:45:01.487Z,98836.47
2023-02-27T05:47:34.243Z,98842.53
2023-02-27T05:50:10.131Z,98843.16
2023-02-27T05:52:39.698Z,98853.25
2023-02-27T05:55:13.064Z,98853.34
2023-02-27T05:57:46.499Z,98848.91
2023-02-27T06:00:21.151Z,98855.25
2023-02-27T06:02:50.834Z,98850.25
2023-02-27T06:05:21.123Z,98855.56
2023-02-27T06:07:49.192Z,98861.56
2023-02-27T06:10:19.440Z,98862.50
2023-02-27T06:12:47.576Z,98861.78
2023-02-27T06:15:15.682Z,98860.50
2023-02-27T06:17:43.865Z,98871.03
2023-02-27T06:20:14.282Z,98866.28
2023-02-27T06:22:42.331Z,98862.72
2023-02-27T06:25:11.363Z,98867.47
2023-02-27T06:27:39.456Z,98864.66
2023-02-27T06:30:08.842Z,98866.28
2023-02-27T06:32:36.984Z,98866.47
2023-02-27T06:35:06.098Z,98878.50
2023-02-27T06:37:35.581Z,98868.63
2023-02-27T06:40:05.909Z,98872.38
2023-02-27T06:42:34.152Z,98870.03
2023-02-27T06:45:02.191Z,98869.41
2023-02-27T06:47:30.223Z,98882.13
2023-02-27T06:49:58.372Z,98884.13
2023-02-27T06:52:26.554Z,98887.84
2023-02-27T06:54:56.213Z,98880.50
2023-02-27T06:57:24.357Z,98884.75
2023-02-27T06:59:52.417Z,98886.91
2023-02-27T07:02:20.549Z,98893.72
2023-02-27T07:04:48.671Z,98893.72
2023-02-27T07:07:33.939Z,98890.00
2023-02-27T07:10:08.356Z,98895.69
2023-02-27T07:12:36.483Z,98897.06
2023-02-27T07:15:05.378Z,98900.91
2023-02-27T07:17:33.406Z,98894.88
2023-02-27T07:20:01.435Z,98902.50
2023-02-27T07:22:29.546Z,98895.41
2023-02-27T07:24:57.668Z,98898.13
2023-02-27T07:27:27.173Z,98905.47
2023-02-27T07:29:55.309Z,98900.03
2023-02-27T07:32:23.501Z,98905.44
2023-02-27T07:34:51.598Z,98909.06
2023-02-27T07:37:19.749Z,98911.00
2023-02-27T07:39:47.899Z,98916.34
2023-02-27T07:42:16.704Z,98913.91
2023-02-27T07:44:46.352Z,98910.31
2023-02-27T07:47:14.412Z,98915.34
2023-02-27T07:49:42.519Z,98920.69
2023-02-27T07:52:11.377Z,98922.09
2023-02-27T07:54:39.557Z,98922.41
2023-02-27T07:57:07.912Z,98925.09
2023-02-27T07:59:36.040Z,98928.59
2023-02-27T08:02:05.488Z,98935.03
2023-02-27T08:04:33.642Z,98947.38
2023-02-27T08:07:01.874Z,98943.22
2023-02-27T08:09:30.834Z,98939.50
2023-02-27T08:11:59.037Z,98943.25
2023-02-27T08:14:27.129Z,98949.66
2023-02-27T08:16:55.194Z,98945.03
2023-02-27T08:19:24.573Z,98946.56
2023-02-27T08:21:52.612Z,98944.41
2023-02-27T08:24:20.737Z,98948.09
2023-02-27T08:26:48.953Z,98955.44
2023-02-27T08:29:17.420Z,98957.06
2023-02-27T08:31:46.875Z,98959.72
2023-02-27T08:34:16.519Z,98959.22
2023-02-27T08:36:46.554Z,98966.97
2023-02-27T08:39:14.620Z,98963.34
2023-02-27T08:41:42.952Z,98965.06
2023-02-27T08:44:13.086Z,98969.03
2023-02-27T08:46:41.505Z,98966.53
2023-02-27T08:49:09.582Z,98962.06
2023-02-27T08:51:37.633Z,98962.06
2023-02-27T08:54:07.177Z,98966.75
2023-02-27T08:56:35.669Z,98967.59
2023-02-27T08:59:03.771Z,98969.94
2023-02-27T09:01:34.680Z,98966.00
2023-02-27T09:04:04.004Z,98964.31
2023-02-27T09:06:34.079Z,98973.78
2023-02-27T09:09:02.302Z,98969.69
2023-02-27T09:11:32.008Z,98977.28
2023-02-27T09:14:00.324Z,98972.84
2023-02-27T09:16:28.947Z,98986.59
2023-02-27T09:18:57.225Z,98979.00
2023-02-27T09:21:25.768Z,98987.19
2023-02-27T09:23:55.001Z,98982.75
2023-02-27T09:26:39.745Z,98991.19
2023-02-27T09:29:11.755Z,98987.34
2023-02-27T09:31:39.790Z,98993.94
2023-02-27T09:34:07.890Z,99005.38
2023-02-27T09:36:36.155Z,99004.16
2023-02-27T09:39:04.967Z,99005.44
2023-02-27T09:41:50.824Z,99015.63
2023-02-27T09:44:45.307Z,99010.47
2023-02-27T09:47:19.626Z,99009.19
2023-02-27T09:50:03.732Z,99008.44
2023-02-27T09:52:35.125Z,99018.25
2023-02-27T09:55:04.291Z,99011.00
2023-02-27T09:57:43.891Z,99008.38
2023-02-27T10:00:31.913Z,99013.41
2023-02-27T10:03:17.077Z,99007.03
2023-02-27T10:05:54.121Z,99018.25
2023-02-27T10:08:30.501Z,99028.41
2023-02-27T10:11:04.854Z,99026.09
2023-02-27T10:13:50.541Z,99025.88
2023-02-27T10:16:22.848Z,99023.53
2023-02-27T10:18:58.165Z,99026.94
2023-02-27T10:21:32.780Z,99032.25
2023-02-27T10:24:08.448Z,99027.09
2023-02-27T10:26:40.696Z,99023.75
2023-02-27T10:29:20.101Z,99031.03
2023-02-27T10:31:56.921Z,99034.19
2023-02-27T10:34:28.274Z,99033.78
2023-02-27T10:36:57.990Z,99032.28
2023-02-27T10:39:27.148Z,99032.50
2023-02-27T10:41:55.815Z,99035.16
2023-02-27T10:44:24.626Z,99042.03
2023-02-27T10:46:54.048Z,99037.50
2023-02-27T10:49:23.318Z,99048.00
2023-02-27T10:52:07.127Z,99038.16
2023-02-27T10:54:35.312Z,99041.03
2023-02-27T10:57:05.482Z,99040.44
2023-02-27T10:59:36.612Z,99040.69
2023-02-27T11:02:21.035Z,99034.75
2023-02-27T11:04:54.166Z,99040.63
2023-02-27T11:07:32.332Z,99033.41
2023-02-27T11:10:03.725Z,99037.31
2023-02-27T11:12:34.309Z,99027.38
2023-02-27T11:15:05.022Z,99034.75
2023-02-27T11:17:36.919Z,99028.09
2023-02-27T11:20:07.250Z,99031.00
2023-02-27T11:22:35.366Z,99042.38
2023-02-27T11:25:27.586Z,99036.41
2023-02-27T11:28:14.754Z,99027.75
2023-02-27T11:30:44.612Z,99035.88
2023-02-27T11:33:21.088Z,99034.56
2023-02-27T11:35:56.971Z,99035.63
2023-02-27T11:38:28.810Z,99030.34
2023-02-27T11:40:58.667Z,99029.47
2023-02-27T11:43:29.342Z,99029.50
2023-02-27T11:46:04.291Z,99028.25
2023-02-27T11:48:40.810Z,99032.25
2023-02-27T11:51:34.354Z,99024.09
2023-02-27T11:54:22.009Z,99018.25
2023-02-27T11:56:55.287Z,99030.03
2023-02-27T11:59:37.831Z,99021.47
2023-02-27T12:02:16.798Z,99017.66
2023-02-27T12:04:52.437Z,99018.38
2023-02-27T12:07:25.851Z,99017.03
2023-02-27T12:10:03.166Z,99026.78
2023-02-27T12:12:37.874Z,99021.53
2023-02-27T12:15:16.409Z,99023.84
2023-02-27T12:17:48.943Z,99021.53
2023-02-27T12:20:29.254Z,99022.22
2023-02-27T12:22:57.511Z,99027.56
2023-02-27T12:25:44.198Z,99030.28
2023-02-27T12:28:36.550Z,99027.63
2023-02-27T12:31:29.130Z,99038.69
2023-02-27T12:34:07.527Z,99039.91
2023-02-27T12:36:37.243Z,99042.16
2023-02-27T12:39:05.861Z,99047.03
2023-02-27T12:41:42.350Z,99049.97
2023-02-27T12:44:24.584Z,99050.88
2023-02-27T12:46:59.808Z,99054.94
2023-02-27T12:49:40.516Z,99056.84
2023-02-27T12:52:21.284Z,99058.09
2023-02-27T12:55:01.621Z,99059.38
2023-02-27T12:57:38.439Z,99058.94
2023-02-27T13:00:15.969Z,99068.56
2023-02-27T13:02:51.727Z,99066.00
2023-02-27T13:05:43.037Z,99074.13
2023-02-27T13:08:25.495Z,99074.97
2023-02-27T13:11:00.810Z,99071.16
2023-02-27T13:13:36.606Z,99070.47
2023-02-27T13:16:08.367Z,99069.19
2023-02-27T13:18:45.794Z,99072.34
2023-02-27T13:21:19.793Z,99073.69
2023-02-27T13:23:59.501Z,99074.13
2023-02-27T13:26:31.860Z,99072.69
2023-02-27T13:29:01.054Z,99074.31
2023-02-27T13:31:37.711Z,99075.28
2023-02-27T13:34:14.703Z,99072.44
2023-02-27T13:36:46.447Z,99071.34
2023-02-27T13:39:43.872Z,99068.69
2023-02-27T13:42:49.095Z,99072.09
2023-02-27T13:45:56.966Z,99072.31
2023-02-27T13:48:42.380Z,99065.59
2023-02-27T13:51:32.634Z,99062.78
2023-02-27T13:54:20.614Z,99066.44
2023-02-27T13:56:51.660Z,99062.88
2023-02-27T13:59:24.560Z,99066.88
2023-02-27T14:01:55.384Z,99068.84
2023-02-27T14:04:26.401Z,99070.56
2023-02-27T14:07:00.243Z,99071.28
2023-02-27T14:09:35.337Z,99064.91
2023-02-27T14:12:07.449Z,99069.06
2023-02-27T14:14:49.148Z,99074.84
2023-02-27T14:17:41.342Z,99079.09
2023-02-27T14:20:14.954Z,99078.34
2023-02-27T14:23:09.775Z,99083.16
2023-02-27T14:25:41.270Z,99083.06
2023-02-27T14:28:21.755Z,99083.56
2023-02-27T14:30:55.649Z,99086.81
2023-02-27T14:33:39.523Z,99088.91
2023-02-27T14:36:11.255Z,99093.41
2023-02-27T14:38:44.084Z,99087.22
2023-02-27T14:41:28.352Z,99098.16
2023-02-27T14:43:59.867Z,99098.16
2023-02-27T14:46:30.779Z,99101.34
2023-02-27T14:49:01.908Z,99109.13
2023-02-27T14:51:32.963Z,99113.38
2023-02-27T14:54:03.254Z,99110.41
2023-02-27T14:56:32.230Z,99111.53
2023-02-27T14:59:04.588Z,99111.00
2023-02-27T15:01:37.554Z,99116.00
2023-02-27T15:04:08.105Z,99121.25
2023-02-27T15:06:43.444Z,99125.66
2023-02-27T15:09:22.998Z,99121.47
2023-02-27T15:12:03.045Z,99122.81
2023-02-27T15:14:38.205Z,99129.81
2023-02-27T15:17:15.846Z,99124.44
2023-02-27T15:19:48.920Z,99133.06
2023-02-27T15:22:36.064Z,99145.09
2023-02-27T15:25:08.072Z,99143.22
2023-02-27T15:27:38.282Z,99151.13
2023-02-27T15:30:09.799Z,99146.63
2023-02-27T15:32:42.171Z,99149.84
2023-02-27T15:35:18.630Z,99146.34
2023-02-27T15:37:52.163Z,99155.81
2023-02-27T15:40:23.916Z,99154.03
2023-02-27T15:42:53.646Z,99158.56
2023-02-27T15:45:26.226Z,99167.09
2023-02-27T15:47:55.008Z,99167.06
2023-02-27T15:50:28.377Z,99171.75
2023-02-27T15:53:02.757Z,99174.88
2023-02-27T15:55:33.629Z,99175.25
2023-02-27T15:58:03.700Z,99175.81
2023-02-27T16:00:36.581Z,99188.25
2023-02-27T16:03:09.976Z,99188.91
2023-02-27T16:05:42.680Z,99189.50
2023-02-27T16:08:19.195Z,99186.28
2023-02-27T16:10:48.481Z,99186.88
2023-02-27T16:13:31.299Z,99187.56
2023-02-27T16:16:04.332Z,99192.09
2023-02-27T16:18:34.946Z,99195.84
2023-02-27T16:21:14.658Z,99197.91
2023-02-27T16:23:45.133Z,99197.53
2023-02-27T16:26:32.015Z,99198.94
2023-02-27T16:29:02.770Z,99208.66
2023-02-27T16:31:35.075Z,99215.31
2023-02-27T16:34:14.457Z,99211.94
2023-02-27T16:36:43.990Z,99212.75
2023-02-27T16:39:13.944Z,99217.47
2023-02-27T16:41:42.174Z,99218.06
2023-02-27T16:44:10.545Z,99219.53
2023-02-27T16:46:40.009Z,99228.31
2023-02-27T16:49:20.200Z,99228.59
2023-02-27T16:51:48.511Z,99234.56
2023-02-27T16:54:17.148Z,99241.81
2023-02-27T16:56:46.547Z,99239.81
2023-02-27T16:59:28.234Z,99240.97
2023-02-27T17:01:58.797Z,99237.63
2023-02-27T17:04:28.978Z,99238.72
2023-02-27T17:06:59.094Z,99243.09
2023-02-27T17:09:28.374Z,99249.78
2023-02-27T17:11:57.744Z,99246.69
2023-02-27T17:14:26.166Z,99256.53
2023-02-27T17:16:54.333Z,99257.66
2023-02-27T17:19:24.058Z,99260.00
2023-02-27T17:21:52.292Z,99264.22
2023-02-27T17:24:20.447Z,99265.81
2023-02-27T17:26:49.685Z,99268.31
2023-02-27T17:29:19.069Z,99270.25
2023-02-27T17:31:47.302Z,99275.03
2023-02-27T17:34:16.880Z,99280.00
2023-02-27T17:36:46.391Z,99279.69
2023-02-27T17:39:15.669Z,99282.81
2023-02-27T17:41:45.424Z,99283.84
2023-02-27T17:44:14.119Z,99273.31
2023-02-27T17:46:44.980Z,99279.22
2023-02-27T17:49:13.086Z,99278.22
2023-02-27T17:51:41.161Z,99280.50
2023-02-27T17:54:10.762Z,99285.22
2023-02-27T17:56:39.527Z,99285.25
2023-02-27T17:59:08.719Z,99288.97
2023-02-27T18:01:36.886Z,99288.53
2023-02-27T18:04:05.139Z,99291.47
2023-02-27T18:06:33.257Z,99288.94
2023-02-27T18:09:01.444Z,99295.69
2023-02-27T18:11:31.047Z,99291.41
2023-02-27T18:13:59.322Z,99298.78
2023-02-27T18:16:27.922Z,99306.19
2023-02-27T18:18:56.312Z,99302.69
2023-02-27T18:21:25.170Z,99296.81
2023-02-27T18:23:53.637Z,99307.56
2023-02-27T18:26:30.037Z,99302.16
2023-02-27T18:29:02.179Z,99308.28
2023-02-27T18:31:32.487Z,99314.72
2023-02-27T18:34:01.265Z,99314.59
2023-02-27T18:36:30.119Z,99313.59
2023-02-27T18:38:58.881Z,99313.63
2023-02-27T18:41:27.221Z,99322.97
2023-02-27T18:43:55.418Z,99326.31
2023-02-27T18:46:25.203Z,99320.78
2023-02-27T18:48:53.303Z,99328.47
2023-02-27T18:51:22.659Z,99318.47
2023-02-27T18:53:51.824Z,99330.25
2023-02-27T18:56:22.950Z,99333.00
2023-02-27T18:58:51.537Z,99329.38
2023-02-27T19:01:21.871Z,99329.63
2023-02-27T19:03:53.454Z,99334.97
2023-02-27T19:06:21.522Z,99341.66
2023-02-27T19:08:49.597Z,99344.19
2023-02-27T19:11:25.312Z,99343.88
2023-02-27T19:13:53.525Z,99349.69
2023-02-27T19:16:21.783Z,99353.53
2023-02-27T19:18:51.287Z,99353.59
2023-02-27T19:21:20.218Z,99356.38
2023-02-27T19:23:48.245Z,99357.47
2023-02-27T19:26:16.428Z,99357.00
2023-02-27T19:28:44.518Z,99365.16
2023-02-27T19:31:14.716Z,99354.31
2023-02-27T19:33:42.832Z,99352.84
2023-02-27T19:36:14.528Z,99356.59
2023-02-27T19:38:42.775Z,99357.44
2023-02-27T19:41:14.802Z,99357.75
2023-02-27T19:43:43.108Z,99364.25
2023-02-27T19:46:14.096Z,99368.97
2023-02-27T19:48:42.993Z,99361.50
2023-02-27T19:51:14.770Z,99366.13
2023-02-27T19:53:45.329Z,99368.84
2023-02-27T19:56:15.086Z,99367.72
2023-02-27T19:58:43.377Z,99368.03
2023-02-27T20:01:12.506Z,99365.72
2023-02-27T20:03:43.843Z,99367.41
2023-02-27T20:06:18.978Z,99377.84
2023-02-27T20:08:48.636Z,99381.03
2023-02-27T20:11:17.485Z,99376.63
2023-02-27T20:13:45.760Z,99380.97
2023-02-27T20:16:16.493Z,99374.28
2023-02-27T20:18:45.048Z,99385.66
2023-02-27T20:21:15.750Z,99386.44
2023-02-27T20:23:46.516Z,99387.06
2023-02-27T20:26:18.166Z,99392.97
2023-02-27T20:28:47.362Z,99397.97
2023-02-27T20:31:17.109Z,99404.09
2023-02-27T20:33:45.273Z,99400.84
2023-02-27T20:36:16.135Z,99406.63
2023-02-27T20:38:46.160Z,99391.44
2023-02-27T20:41:18.472Z,99394.53
2023-02-27T20:43:46.636Z,99402.31
2023-02-27T20:46:18.140Z,99392.91
2023-02-27T20:48:46.389Z,99404.22
2023-02-27T20:51:16.576Z,99403.91
2023-02-27T20:53:48.260Z,99409.63
2023-02-27T20:56:16.953Z,99401.09
2023-02-27T20:58:45.213Z,99408.84
2023-02-27T21:01:15.766Z,99403.84
2023-02-27T21:03:45.245Z,99403.03
2023-02-27T21:06:15.648Z,99395.94
2023-02-27T21:08:47.213Z,99398.81
2023-02-27T21:11:17.852Z,99396.47
2023-02-27T21:13:47.324Z,99390.59
2023-02-27T21:16:16.728Z,99398.75
2023-02-27T21:18:45.627Z,99404.59
2023-02-27T21:21:23.972Z,99398.44
2023-02-27T21:23:53.852Z,99406.25
2023-02-27T21:26:24.678Z,99408.25
2023-02-27T21:28:54.046Z,99404.88
2023-02-27T21:31:24.325Z,99412.94
2023-02-27T21:33:53.255Z,99414.13
2023-02-27T21:36:26.606Z,99414.03
2023-02-27T21:39:01.004Z,99410.06
2023-02-27T21:41:30.768Z,99416.75
2023-02-27T21:44:00.315Z,99423.75
2023-02-27T21:46:29.367Z,99418.72
2023-02-27T21:48:57.867Z,99425.84
2023-02-27T21:51:38.827Z,99426.16
2023-02-27T21:54:11.976Z,99423.44
2023-02-27T21:56:41.258Z,99429.66
2023-02-27T21:59:09.688Z,99426.13
2023-02-27T22:01:38.223Z,99424.94
2023-02-27T22:04:07.738Z,99422.31
2023-02-27T22:06:35.986Z,99428.63
2023-02-27T22:09:06.385Z,99431.72
2023-02-27T22:11:36.453Z,99424.56
2023-02-27T22:14:06.839Z,99427.69
2023-02-27T22:16:35.160Z,99437.50
2023-02-27T22:19:06.290Z,99437.06
2023-02-27T22:21:34.767Z,99435.44
2023-02-27T22:24:02.918Z,99434.25
2023-02-27T22:26:32.777Z,99433.94
2023-02-27T22:29:02.472Z,99439.06
2023-02-27T22:31:33.440Z,99427.69
2023-02-27T22:34:04.248Z,99437.47
2023-02-27T22:36:33.582Z,99430.88
2023-02-27T22:39:01.966Z,99441.31
2023-02-27T22:41:32.211Z,99435.84
2023-02-27T22:44:03.031Z,99437.00
2023-02-27T22:46:33.295Z,99439.72
2023-02-27T22:49:03.335Z,99434.25
2023-02-27T22:51:31.849Z,99441.34
2023-02-27T22:54:03.141Z,99439.06
2023-02-27T22:56:31.970Z,99441.31
2023-02-27T22:59:00.189Z,99447.88
2023-02-27T23:01:32.474Z,99449.06
2023-02-27T23:04:02.450Z,99443.28
2023-02-27T23:06:32.436Z,99456.47
2023-02-27T23:09:00.818Z,99446.06
2023-02-27T23:11:29.228Z,99442.50
2023-02-27T23:13:57.642Z,99432.06
2023-02-27T23:16:26.030Z,99445.97
2023-02-27T23:18:57.550Z,99441.72
2023-02-27T23:21:29.894Z,99444.47
2023-02-27T23:23:58.531Z,99450.28
2023-02-27T23:26:28.488Z,99441.34
2023-02-27T23:28:57.242Z,99450.41
2023-02-27T23:31:26.064Z,99442.19
2023-02-27T23:33:55.586Z,99447.56
2023-02-27T23:36:23.818Z,99450.69
2023-02-27T23:38:51.904Z,99448.03
2023-02-27T23:41:20.914Z,99452.31
2023-02-27T23:44:10.353Z,99458.63
2023-02-27T23:46:39.042Z,99453.88
2023-02-27T23:49:08.916Z,99445.31
2023-02-27T23:51:37.275Z,99443.88
2023-02-27T23:54:05.661Z,99442.75
2023-02-27T23:56:34.181Z,99446.25
2023-02-27T23:59:04.313Z,99457.50
